METAR Data
IDs: Format: Raw Decoded Include TAF

Data at: 2143 UTC 20 Nov 2018

KBKS 202135Z AUTO 36003KT 10SM OVC040 15/05 A3026 RMK AO1 T01500049
KBKS 202115Z AUTO 36003KT 10SM OVC040 15/05 A3025 RMK AO1 T01500050
KBKS 202055Z AUTO 36003KT 10SM BKN040 OVC046 15/05 A3025 RMK AO1 T01520054
KBKS 202035Z AUTO 36008KT 10SM SCT038 OVC046 16/05 A3025 RMK AO1 T01550053
KBKS 202015Z AUTO 35008G14KT 10SM SCT038 OVC046 15/05 A3025 RMK AO1 T01530051
KBKS 201955Z AUTO 35008KT 10SM BKN038 OVC043 15/05 A3027 RMK AO1 T01520051
KBKS 201935Z AUTO 34008KT 10SM OVC038 15/05 A3028 RMK AO1 T01490052
KBKS 201915Z AUTO 35007KT 10SM OVC038 15/05 A3029 RMK AO1 T01460048
KBKS 201855Z AUTO 35009KT 10SM OVC040 15/05 A3029 RMK AO1 T01450045
KBKS 201835Z AUTO 02009KT 10SM OVC040 14/04 A3031 RMK AO1 T01430041
KBKS 201815Z AUTO 36009KT 10SM OVC038 14/04 A3032 RMK AO1 T01420043
KBKS 201755Z AUTO 02007KT 10SM OVC038 14/04 A3033 RMK AO1 T01420044 10142 20116
KBKS 201735Z AUTO 35009KT 10SM OVC038 14/05 A3033 RMK AO1 T01380045
KBKS 201715Z AUTO 01010G15KT 10SM OVC038 14/05 A3035 RMK AO1 T01380045
KBKS 201655Z AUTO 01010KT 10SM OVC036 14/04 A3035 RMK AO1 T01350044
KBKS 201635Z AUTO 01010G15KT 10SM OVC036 13/05 A3034 RMK AO1 T01330045
KBKS 201615Z AUTO 01012G19KT 10SM OVC036 13/04 A3034 RMK AO1 T01300043
KBKS 201555Z AUTO 02015KT 10SM OVC036 13/04 A3034 RMK AO1 T01300043
KBKS 201535Z AUTO 02009KT 10SM OVC034 13/05 A3033 RMK AO1 T01270046
KBKS 201515Z AUTO 01010G18KT 10SM OVC034 13/05 A3032 RMK AO1 T01250050
KBKS 201455Z AUTO 36014KT 10SM OVC032 13/05 A3032 RMK AO1 T01250051
KBKS 201435Z AUTO 36009G15KT 10SM OVC030 12/05 A3031 RMK AO1 T01240054
KBKS 201415Z AUTO 01011KT 10SM OVC030 12/06 A3030 RMK AO1 T01220057
KBKS 201355Z AUTO 01009G16KT 10SM OVC030 12/06 A3029 RMK AO1 T01200055
KBKS 201335Z AUTO 36007G14KT 10SM OVC028 12/06 A3029 RMK AO1 T01200058
KBKS 201315Z AUTO 35008KT 10SM OVC028 12/06 A3027 RMK AO1 T01170060
KBKS 201255Z AUTO 36007KT 330V030 10SM OVC028 12/06 A3027 RMK AO1 T01170062
KBKS 201235Z AUTO 01007KT 10SM OVC026 12/06 A3026 RMK AO1 T01160063
KBKS 201215Z AUTO 36007KT 10SM OVC026 12/07 A3025 RMK AO1 T01160065
KBKS 201155Z AUTO 36008KT 10SM OVC026 12/07 A3024 RMK AO1 T01160065 10116 20103
KBKS 201135Z AUTO 36008KT 10SM OVC024 12/07 A3023 RMK AO1 T01150067
KBKS 201115Z AUTO 35006KT 10SM OVC024 12/07 A3023 RMK AO1 T01150070
KBKS 201055Z AUTO 35005KT 10SM OVC022 11/07 A3022 RMK AO1 T01130073
KBKS 201035Z AUTO 34004KT 10SM OVC022 11/08 A3022 RMK AO1 T01130075
KBKS 201015Z AUTO 34005KT 10SM OVC020 11/08 A3021 RMK AO1 T01130075
KBKS 200955Z AUTO 35006KT 10SM OVC018 11/08 A3021 RMK AO1 T01130078
KBKS 200935Z AUTO 35006KT 10SM OVC016 11/08 A3020 RMK AO1 T01130079
KBKS 200915Z AUTO 36005KT 10SM OVC016 11/08 A3020 RMK AO1 T01130081
KBKS 200855Z AUTO 36005KT 10SM OVC016 11/08 A3021 RMK AO1 T01110084
KBKS 200835Z AUTO 35005KT 7SM OVC014 11/09 A3021 RMK AO1 T01070090
KBKS 200815Z AUTO 36004KT 5SM SCT008 OVC012 11/09 A3021 RMK AO1 T01050088
KBKS 200755Z AUTO 36005KT 4SM OVC008 11/09 A3022 RMK AO1 T01050090
KBKS 200735Z AUTO 36007KT 4SM OVC008 11/09 A3022 RMK AO1 T01050089
KBKS 200715Z AUTO 35009KT 5SM OVC008 11/09 A3021 RMK AO1 T01050087
KBKS 200655Z AUTO 35006KT 7SM OVC008 11/09 A3021 RMK AO1 T01060086
KBKS 200635Z AUTO 36006KT 7SM OVC008 11/09 A3021 RMK AO1 T01060086
KBKS 200610Z AUTO 33006KT 7SM OVC010 11/09 A3021 RMK AO1 T01070086
KBKS 200555Z AUTO 34004KT 7SM OVC010 11/09 A3021 RMK AO1 T01070086 10107 20098 401120095
KBKS 200535Z AUTO 33003KT 7SM OVC010 11/09 A3021 RMK AO1 T01060086
KBKS 200515Z AUTO 33004KT 7SM OVC008 11/09 A3021 RMK AO1 T01050087
KBKS 200455Z AUTO 34004KT 5SM OVC006 11/09 A3021 RMK AO1 T01050088
KBKS 200435Z AUTO 34004KT 5SM OVC006 10/09 A3020 RMK AO1 T01020088
KBKS 200415Z AUTO 34006KT 4SM OVC006 10/09 A3020 RMK AO1 T01020090
KBKS 200355Z AUTO 33007KT 4SM OVC006 10/09 A3020 RMK AO1 T01030090
KBKS 200335Z AUTO 34004KT 5SM OVC006 10/09 A3020 RMK AO1 T01030088
KBKS 200315Z AUTO 35006KT 5SM OVC006 10/09 A3019 RMK AO1 T01020087
KBKS 200255Z AUTO 36007KT 5SM OVC006 10/09 A3019 RMK AO1 T01010086
KBKS 200235Z AUTO 35006KT 4SM OVC006 10/09 A3019 RMK AO1 T01010088
KBKS 200215Z AUTO 35004KT 5SM OVC004 10/09 A3019 RMK AO1 T01010088
KBKS 200155Z AUTO 35005KT 5SM OVC004 10/09 A3019 RMK AO1 T01000087
KBKS 200135Z AUTO 34005KT 4SM OVC004 10/09 A3018 RMK AO1 T01000087
KBKS 200115Z AUTO 36005KT 3SM OVC004 10/09 A3017 RMK AO1 T01000088
KBKS 200055Z AUTO 36005KT 4SM OVC004 10/09 A3016 RMK AO1 T00990086
KBKS 200035Z AUTO 01007KT 5SM OVC004 10/09 A3015 RMK AO1 T00990085
KBKS 200015Z AUTO 36006KT 5SM OVC004 10/09 A3015 RMK AO1 T00980085
KBKS 192355Z AUTO 36007KT 5SM OVC004 10/09 A3014 RMK AO1 T00990086 10100 20095
KBKS 192335Z AUTO 36005KT 5SM OVC004 10/09 A3014 RMK AO1 T01000086
KBKS 192315Z AUTO 35005KT 5SM OVC004 10/09 A3014 RMK AO1 T00970085
KBKS 192255Z AUTO 35008KT 4SM OVC004 10/09 A3013 RMK AO1 T00980086
KBKS 192235Z AUTO 36007KT 4SM OVC004 10/09 A3012 RMK AO1 T00980086
KBKS 192215Z AUTO 35008KT 3SM OVC004 10/09 A3012 RMK AO1 T00970085
KBKS 192155Z AUTO 35007KT 3SM OVC004 10/08 A3012 RMK AO1 T00960084
KBKS 192135Z AUTO 35006KT 4SM OVC004 10/08 A3012 RMK AO1 T00960084
KBKS 192115Z AUTO 35008KT 3SM OVC004 10/08 A3012 RMK AO1 T00950082
KBKS 192055Z AUTO 35007KT 3SM OVC004 10/08 A3012 RMK AO1 T00950082
KBKS 192035Z AUTO 35006KT 3SM OVC004 10/08 A3011 RMK AO1 T00960083
KBKS 192015Z AUTO 33006KT 3SM OVC004 10/09 A3013 RMK AO1 T00970085
KBKS 191955Z AUTO 35007KT 5SM OVC004 10/08 A3013 RMK AO1 T00960082
KBKS 191935Z AUTO 34006KT 5SM OVC004 10/08 A3014 RMK AO1 T00950081
KBKS 191915Z AUTO 36008KT 5SM OVC004 10/08 A3015 RMK AO1 T00960081
KBKS 191855Z AUTO 35008KT 5SM OVC004 10/08 A3014 RMK AO1 T00970083
KBKS 191835Z AUTO 35008KT 5SM OVC004 10/08 A3014 RMK AO1 T00960083
KBKS 191815Z AUTO 35010KT 4SM OVC004 10/09 A3016 RMK AO1 T00970085
KBKS 191755Z AUTO 32006KT 3SM OVC004 10/08 A3017 RMK AO1 T00960084 10103 20095
KBKS 191735Z AUTO 32006KT 3SM OVC004 10/08 A3017 RMK AO1 T00960084
KBKS 191715Z AUTO 01008KT 2 1/2SM OVC004 10/09 A3017 RMK AO1 T00980085
KBKS 191655Z AUTO 35007KT 3SM OVC004 10/09 A3019 RMK AO1 T00990086
KBKS 191635Z AUTO 35008KT 3SM OVC004 10/09 A3019 RMK AO1 T00960085
KBKS 191615Z AUTO 35007KT 7SM OVC004 10/09 A3019 RMK AO1 T00980085
KBKS 191555Z AUTO 36008KT 7SM OVC004 10/09 A3019 RMK AO1 T00970085
KBKS 191535Z AUTO 33007KT 7SM OVC004 10/09 A3018 RMK AO1 T00990086
KBKS 191515Z AUTO 35007KT 5SM OVC004 10/09 A3017 RMK AO1 T01000087
KBKS 191455Z AUTO 01006KT 7SM OVC004 10/09 A3017 RMK AO1 T01000088
KBKS 191435Z AUTO 35011G15KT 7SM OVC004 10/09 A3015 RMK AO1 T01000089
KBKS 191415Z AUTO 35009KT 5SM OVC004 10/09 A3015 RMK AO1 T01000088
KBKS 191355Z AUTO 36006KT 7SM OVC004 10/09 A3015 RMK AO1 T01000088
KBKS 191335Z AUTO 35008KT 10SM OVC006 10/09 A3015 RMK AO1 T01000087
KBKS 191315Z AUTO 34008KT 7SM OVC006 10/09 A3014 RMK AO1 T01000088
KBKS 191255Z AUTO 35006KT 4SM BKN004 OVC008 10/09 A3014 RMK AO1 T01010090
KBKS 191235Z AUTO 35008KT 5SM OVC006 10/09 A3013 RMK AO1 T01010090
KBKS 191215Z AUTO 33007KT 3SM OVC004 10/09 A3012 RMK AO1 T01010090
KBKS 191155Z AUTO 34006KT 2 1/2SM OVC006 10/09 A3011 RMK AO1 T01030092 10112 20102
KBKS 191135Z AUTO 35008KT 2 1/2SM OVC006 11/09 A3011 RMK AO1 T01050093
KBKS 191115Z AUTO 35006KT 2 1/2SM OVC004 10/09 A3012 RMK AO1 T01030092
KBKS 191055Z AUTO 35007KT 2 1/2SM OVC004 10/09 A3011 RMK AO1 T01030092
KBKS 191035Z AUTO 36009KT 2 1/2SM OVC004 10/09 A3011 RMK AO1 T01030092
KBKS 191015Z AUTO 36007KT 2 1/2SM OVC004 10/09 A3010 RMK AO1 T01030093
KBKS 190955Z AUTO 35010KT 2 1/2SM OVC004 11/09 A3011 RMK AO1 T01050093